createdAt,value
2023-03-19T00:11:04.299Z,90.0
2023-03-19T00:25:04.341Z,90.0
2023-03-19T00:39:04.389Z,90.0
2023-03-19T00:53:04.364Z,91.0
2023-03-19T01:07:04.450Z,92.0
2023-03-19T01:21:04.406Z,91.0
2023-03-19T01:35:04.625Z,91.0
2023-03-19T01:49:04.429Z,91.0
2023-03-19T02:03:04.451Z,92.0
2023-03-19T02:17:04.458Z,91.0
2023-03-19T02:31:04.523Z,92.0
2023-03-19T02:45:04.538Z,91.0
2023-03-19T02:59:04.696Z,91.0
2023-03-19T03:13:04.560Z,91.0
2023-03-19T03:27:04.567Z,91.0
2023-03-19T03:41:04.594Z,90.0
2023-03-19T03:55:04.628Z,90.0
2023-03-19T04:09:04.753Z,90.0
2023-03-19T04:23:04.756Z,90.0
2023-03-19T04:37:04.664Z,90.0
2023-03-19T04:51:04.667Z,89.0
2023-03-19T05:05:04.795Z,88.0
2023-03-19T05:19:04.812Z,87.0
2023-03-19T05:34:04.724Z,85.0
2023-03-19T05:49:04.848Z,87.0
2023-03-19T06:04:06.069Z,86.0
2023-03-19T06:19:04.787Z,87.0
2023-03-19T06:34:04.798Z,87.0
2023-03-19T06:49:04.925Z,85.0
2023-03-19T07:04:04.914Z,82.0
2023-03-19T07:19:04.820Z,80.0
2023-03-19T07:34:04.844Z,78.0
2023-03-19T07:50:04.873Z,76.0
2023-03-19T08:05:05.082Z,72.0
2023-03-19T08:20:04.887Z,72.0
2023-03-19T08:35:04.958Z,71.0
2023-03-19T08:50:04.943Z,69.0
2023-03-19T09:05:05.087Z,66.0
2023-03-19T09:20:04.928Z,67.0
2023-03-19T09:35:05.133Z,64.0
2023-03-19T09:50:04.985Z,64.0
2023-03-19T10:05:05.076Z,63.0
2023-03-19T10:20:05.009Z,63.0
2023-03-19T10:35:05.199Z,59.0
2023-03-19T10:50:05.054Z,58.0
2023-03-19T11:05:05.157Z,55.0
2023-03-19T11:20:05.064Z,53.0
2023-03-19T11:35:05.183Z,50.0
2023-03-19T11:50:05.110Z,45.0
2023-03-19T12:05:05.330Z,45.0
2023-03-19T12:20:05.201Z,44.0
2023-03-19T12:35:05.358Z,44.0
2023-03-19T12:50:05.205Z,46.0
2023-03-19T13:05:05.481Z,43.0
2023-03-19T13:20:05.288Z,45.0
2023-03-19T13:35:05.392Z,43.0
2023-03-19T13:50:05.358Z,43.0
2023-03-19T14:05:05.416Z,44.0
2023-03-19T14:20:07.892Z,44.0
2023-03-19T14:35:05.507Z,47.0
2023-03-19T14:50:05.321Z,48.0
2023-03-19T15:05:05.589Z,50.0
2023-03-19T15:20:05.451Z,53.0
2023-03-19T15:35:05.656Z,54.0
2023-03-19T15:50:05.522Z,55.0
2023-03-19T16:05:21.764Z,56.0
2023-03-19T16:20:05.412Z,59.0
2023-03-19T16:35:05.604Z,58.0
2023-03-19T16:50:05.569Z,60.0
2023-03-19T17:05:05.628Z,63.0
2023-03-19T17:20:05.605Z,66.0
2023-03-19T17:35:05.642Z,68.0
2023-03-19T17:50:05.543Z,71.0
2023-03-19T18:05:05.644Z,73.0
2023-03-19T18:19:05.502Z,71.0
2023-03-19T18:33:05.755Z,72.0
2023-03-19T18:47:05.682Z,71.0
2023-03-19T19:01:05.744Z,71.0
2023-03-19T19:15:05.589Z,72.0
2023-03-19T19:29:05.617Z,74.0
2023-03-19T19:43:05.620Z,74.0
2023-03-19T19:57:05.630Z,72.0
2023-03-19T20:11:05.643Z,73.0
2023-03-19T20:25:05.657Z,75.0
2023-03-19T20:39:05.660Z,72.0
2023-03-19T20:53:05.662Z,72.0
2023-03-19T21:07:05.674Z,74.0
2023-03-19T21:21:05.687Z,76.0
2023-03-19T21:35:05.870Z,78.0
2023-03-19T21:49:05.720Z,79.0
2023-03-19T22:03:05.732Z,82.0
2023-03-19T22:17:05.771Z,83.0
2023-03-19T22:31:05.752Z,84.0
2023-03-19T22:45:05.778Z,84.0
2023-03-19T22:59:05.800Z,85.0
2023-03-19T23:13:05.937Z,85.0
2023-03-19T23:27:05.794Z,86.0
2023-03-19T23:41:05.808Z,86.0
2023-03-19T23:55:05.828Z,86.0
